Time;durP1;ratioP1;P1;durP2;ratioP2;P2;SDS_P1;SDS_P2;PMS_P1;PMS_P2;Temp;Humidity;BMP_temperature;BMP_pressure;BME280_temperature;BME280_humidity;BME280_pressure;Samples;Min_cycle;Max_cycle;Signal;HPM_P1;HPM_P2
2022/03/18 00:00:47;;;;;;;26.92;15.35;;;;;;;5.27;41.71;102163.66;5005310;28;20442;-88
2022/03/18 00:03:13;;;;;;;27.42;14.80;;;;;;;5.19;42.35;102157.97;5023323;28;20042;-86
2022/03/18 00:05:41;;;;;;;31.75;14.98;;;;;;;5.19;42.26;102165.63;5022370;28;20111;-86
2022/03/18 00:08:16;;;;;;;33.30;14.15;;;;;;;5.25;42.50;102169.69;5006239;28;20102;-86
2022/03/18 00:10:44;;;;;;;30.52;14.95;;;;;;;5.21;42.45;102157.56;5022226;28;20029;-85
2022/03/18 00:13:10;;;;;;;32.90;15.80;;;;;;;5.25;41.76;102164.03;5038916;28;20390;-86
2022/03/18 00:15:37;;;;;;;26.10;15.50;;;;;;;5.20;42.64;102159.59;5037458;28;20044;-86
2022/03/18 00:18:03;;;;;;;23.75;15.50;;;;;;;5.29;42.66;102173.34;5021155;28;20128;-84
2022/03/18 00:20:29;;;;;;;32.83;14.60;;;;;;;5.36;41.88;102166.91;5040494;28;20036;-86
2022/03/18 00:22:55;;;;;;;32.92;15.50;;;;;;;5.20;42.52;102151.09;5038522;28;20033;-86
2022/03/18 00:25:22;;;;;;;30.73;15.52;;;;;;;5.29;42.18;102181.00;5021665;28;20033;-87
2022/03/18 00:27:48;;;;;;;32.67;15.88;;;;;;;5.28;42.27;102173.75;5040177;28;20541;-86
2022/03/18 00:30:16;;;;;;;30.58;15.80;;;;;;;5.26;42.95;102188.25;5037456;28;20028;-86
2022/03/18 00:32:43;;;;;;;35.22;16.10;;;;;;;5.19;42.75;102185.38;5006047;28;20509;-85
2022/03/18 00:35:10;;;;;;;31.02;15.25;;;;;;;5.18;42.32;102192.28;5005024;28;20083;-85
2022/03/18 00:37:37;;;;;;;32.67;16.17;;;;;;;5.16;42.51;102183.38;4989015;28;20071;-85
2022/03/18 00:40:05;;;;;;;31.95;16.00;;;;;;;5.19;43.05;102183.38;5014794;28;20420;-87
2022/03/18 00:42:31;;;;;;;31.40;15.63;;;;;;;5.23;43.51;102187.03;5021493;28;20398;-85
2022/03/18 00:44:58;;;;;;;29.42;15.25;;;;;;;5.27;43.24;102175.75;5022429;28;20470;-87
2022/03/18 00:52:56;;;;;;;25.63;15.02;;;;;;;5.01;43.49;102178.84;5052708;28;20036;-85
2022/03/18 00:55:22;;;;;;;31.55;16.42;;;;;;;5.05;43.20;102193.78;5022511;28;20275;-87
2022/03/18 00:57:49;;;;;;;35.13;18.35;;;;;;;5.07;44.17;102188.56;5036633;28;20029;-87
2022/03/18 01:00:16;;;;;;;31.70;16.85;;;;;;;5.03;44.08;102182.88;5036961;28;20033;-87
2022/03/18 01:02:42;;;;;;;33.20;16.45;;;;;;;4.96;44.22;102188.50;5023631;28;20142;-85
2022/03/18 01:05:08;;;;;;;29.40;17.15;;;;;;;4.93;44.48;102192.13;5028424;28;20022;-86
2022/03/18 01:07:34;;;;;;;34.75;16.60;;;;;;;4.93;44.22;102192.13;5054312;28;20025;-85
2022/03/18 01:10:02;;;;;;;29.05;15.82;;;;;;;4.90;44.32;102178.78;5055888;28;20032;-85
2022/03/18 01:12:29;;;;;;;35.55;17.38;;;;;;;4.92;44.63;102195.34;5036911;28;20025;-84
2022/03/18 01:14:56;;;;;;;29.33;16.65;;;;;;;4.94;44.85;102196.53;5019115;28;20033;-84
2022/03/18 01:17:23;;;;;;;31.67;16.20;;;;;;;4.89;44.90;102194.09;5056500;28;20091;-82
2022/03/18 01:19:48;;;;;;;30.83;16.52;;;;;;;4.83;44.65;102183.59;5041756;28;20029;-81
2022/03/18 01:22:15;;;;;;;34.90;16.30;;;;;;;4.79;44.16;102189.19;5035872;28;20028;-82
2022/03/18 01:24:41;;;;;;;35.35;15.85;;;;;;;4.70;44.36;102183.09;5034370;28;20057;-82
2022/03/18 01:27:07;;;;;;;32.20;16.45;;;;;;;4.62;44.52;102167.31;5036701;28;20025;-82
2022/03/18 01:29:34;;;;;;;30.60;16.35;;;;;;;4.79;44.84;102194.84;5018209;28;20079;-82
2022/03/18 01:32:00;;;;;;;31.65;16.92;;;;;;;4.78;44.60;102199.66;5017854;28;20029;-83
2022/03/18 01:34:26;;;;;;;27.92;15.55;;;;;;;4.72;44.50;102198.44;5000709;28;20033;-82
2022/03/18 01:36:51;;;;;;;29.52;16.40;;;;;;;4.69;44.42;102204.84;5034126;28;20044;-82
2022/03/18 01:39:17;;;;;;;29.95;16.38;;;;;;;4.51;44.92;102183.34;5017232;28;20116;-82
2022/03/18 01:41:43;;;;;;;29.23;15.85;;;;;;;4.63;44.82;102200.78;5036612;28;20494;-82
2022/03/18 01:44:10;;;;;;;35.75;17.00;;;;;;;4.61;45.33;102202.38;5003011;28;20044;-82
2022/03/18 01:46:37;;;;;;;31.33;16.40;;;;;;;4.56;44.84;102206.38;5034493;28;20105;-82
2022/03/18 01:49:08;;;;;;;29.17;14.68;;;;;;;4.58;44.77;102203.16;5033709;28;20487;-82
2022/03/18 01:51:34;;;;;;;30.48;16.17;;;;;;;4.55;44.87;102201.09;5016307;28;20029;-82
2022/03/18 01:57:03;;;;;;;29.48;16.88;;;;;;;4.46;45.06;102211.91;5012007;28;20176;-83
2022/03/18 01:59:29;;;;;;;31.48;16.92;;;;;;;4.35;44.51;102203.38;5011696;28;20090;-83
2022/03/18 02:02:00;;;;;;;31.80;16.08;;;;;;;4.37;44.63;102217.09;5012482;28;20107;-81
2022/03/18 02:04:35;;;;;;;29.42;16.83;;;;;;;4.35;45.35;102215.47;5011374;28;20053;-82
2022/03/18 02:07:09;;;;;;;30.95;17.38;;;;;;;4.30;45.49;102212.19;4994861;28;20418;-82
2022/03/18 02:09:37;;;;;;;32.50;16.33;;;;;;;4.29;44.67;102214.19;5012904;28;20025;-82
2022/03/18 02:12:03;;;;;;;26.17;14.90;;;;;;;4.34;45.10;102213.03;4996159;28;20038;-82
2022/03/18 02:14:58;;;;;;;26.55;15.00;;;;;;;4.34;44.80;102213.84;5012698;28;20037;-82
2022/03/18 02:17:25;;;;;;;30.70;17.08;;;;;;;4.33;45.45;102226.34;4972683;28;20043;-82
2022/03/18 02:19:50;;;;;;;30.30;16.52;;;;;;;4.26;44.71;102222.63;5008844;28;20390;-81
2022/03/18 02:22:20;;;;;;;33.08;16.23;;;;;;;4.22;45.36;102222.59;5013900;28;20025;-79
2022/03/18 02:24:48;;;;;;;34.58;16.83;;;;;;;4.16;45.82;102221.31;5013855;28;20041;-82
2022/03/18 02:27:13;;;;;;;34.58;16.90;;;;;;;4.12;45.79;102240.22;5013834;28;20030;-82
2022/03/18 02:29:39;;;;;;;32.40;16.60;;;;;;;4.02;45.98;102235.28;5013656;28;20028;-83
2022/03/18 02:32:07;;;;;;;31.17;16.23;;;;;;;3.97;46.31;102244.09;5013453;28;20057;-81
2022/03/18 02:34:34;;;;;;;30.55;16.55;;;;;;;3.92;46.06;102236.78;4996390;28;20033;-81
2022/03/18 02:37:08;;;;;;;30.45;16.33;;;;;;;3.87;46.46;102244.78;5012209;28;20459;-81
2022/03/18 02:39:36;;;;;;;30.95;16.25;;;;;;;3.85;46.13;102247.16;5012340;28;20033;-80
2022/03/18 02:42:01;;;;;;;35.28;17.38;;;;;;;3.74;46.08;102246.25;5012233;28;20034;-81
2022/03/18 02:44:27;;;;;;;32.83;16.85;;;;;;;3.80;46.25;102259.59;4995774;28;20026;-81
2022/03/18 02:46:53;;;;;;;34.40;16.85;;;;;;;3.79;46.63;102263.63;4995712;28;20068;-81
2022/03/18 02:49:20;;;;;;;35.42;17.25;;;;;;;3.71;46.97;102256.25;4994885;28;20038;-82
2022/03/18 02:51:48;;;;;;;37.30;18.40;;;;;;;3.70;46.56;102257.47;5012084;28;20080;-82
2022/03/18 02:54:19;;;;;;;36.88;20.55;;;;;;;3.64;47.21;102263.84;5012543;28;20032;-82
2022/03/18 02:56:44;;;;;;;35.75;20.42;;;;;;;3.62;47.63;102269.03;5018665;28;20111;-82
2022/03/18 02:59:10;;;;;;;32.65;18.67;;;;;;;3.49;47.51;102262.84;5018660;28;20444;-82
2022/03/18 03:01:36;;;;;;;34.55;18.42;;;;;;;3.56;47.27;102273.38;5035135;28;20494;-81
2022/03/18 03:04:01;;;;;;;30.83;17.45;;;;;;;3.52;47.33;102272.50;5017443;28;20037;-82
2022/03/18 03:09:19;;;;;;;31.92;18.10;;;;;;;3.42;47.76;102277.63;5038099;28;20036;-82
2022/03/18 03:11:48;;;;;;;36.83;18.45;;;;;;;3.37;48.19;102283.59;5035267;28;20025;-81
2022/03/18 03:14:15;;;;;;;32.15;16.00;;;;;;;3.31;47.92;102282.28;5034603;28;20033;-82
2022/03/18 03:16:42;;;;;;;34.55;17.70;;;;;;;3.28;47.98;102282.25;5035371;28;20060;-81
2022/03/18 03:19:09;;;;;;;37.45;17.40;;;;;;;3.23;48.14;102280.59;5035074;28;20481;-81
2022/03/18 03:21:37;;;;;;;37.75;17.35;;;;;;;3.17;48.20;102281.28;5018496;28;20021;-82
2022/03/18 03:24:04;;;;;;;31.85;17.77;;;;;;;3.11;48.48;102283.59;5018865;28;20059;-81
2022/03/18 03:26:29;;;;;;;35.30;17.67;;;;;;;3.04;48.71;102283.50;5053578;28;20023;-82
2022/03/18 03:28:54;;;;;;;34.95;17.30;;;;;;;2.89;48.64;102268.41;5052906;28;20112;-81
2022/03/18 03:31:20;;;;;;;34.42;17.40;;;;;;;2.95;48.69;102297.88;5018384;28;20104;-82
2022/03/18 03:33:47;;;;;;;30.92;17.17;;;;;;;2.85;49.09;102284.44;5017835;28;20048;-82
2022/03/18 03:36:14;;;;;;;30.42;17.27;;;;;;;2.87;48.79;102298.91;5014742;28;20021;-82
2022/03/18 03:38:41;;;;;;;36.78;17.67;;;;;;;2.87;48.96;102295.28;5018451;28;20039;-82
2022/03/18 03:41:06;;;;;;;34.10;17.23;;;;;;;2.83;48.97;102306.50;5014678;28;20439;-81
2022/03/18 03:43:33;;;;;;;32.92;17.30;;;;;;;2.85;49.11;102301.31;5034497;28;20537;-82
2022/03/18 03:46:00;;;;;;;30.20;17.85;;;;;;;2.84;49.14;102307.31;5034737;28;20017;-82
2022/03/18 03:48:28;;;;;;;32.47;16.90;;;;;;;2.82;49.22;102307.69;5034935;28;20021;-83
2022/03/18 03:50:54;;;;;;;36.42;16.20;;;;;;;2.75;49.09;102309.56;5034724;28;20108;-82
2022/03/18 03:53:19;;;;;;;30.75;17.92;;;;;;;2.68;49.15;102303.81;5018061;28;20028;-82
2022/03/18 03:55:46;;;;;;;28.23;17.02;;;;;;;2.63;49.40;102309.75;5014538;28;20053;-82
2022/03/18 03:58:11;;;;;;;29.13;16.55;;;;;;;2.63;49.42;102313.38;5031366;28;20423;-82
2022/03/18 04:00:37;;;;;;;31.73;16.33;;;;;;;2.56;49.40;102319.72;5032004;28;20045;-81
2022/03/18 04:03:04;;;;;;;31.50;16.80;;;;;;;2.58;49.43;102325.75;5044677;28;20057;-81
2022/03/18 04:05:34;;;;;;;33.88;18.27;;;;;;;2.54;49.42;102324.06;5003009;28;20032;-81
2022/03/18 04:08:00;;;;;;;30.80;17.60;;;;;;;2.46;49.69;102316.72;5018437;28;20021;-82
2022/03/18 04:10:25;;;;;;;35.67;18.75;;;;;;;2.48;49.17;102332.00;5018652;28;20061;-81
2022/03/18 04:12:51;;;;;;;33.17;17.65;;;;;;;2.47;49.62;102329.56;5018366;28;20053;-80
2022/03/18 04:15:19;;;;;;;38.30;19.73;;;;;;;2.38;49.58;102327.00;5003347;28;20036;-81
2022/03/18 04:17:54;;;;;;;37.90;19.02;;;;;;;2.39;49.47;102334.25;5038173;28;20026;-82
2022/03/18 04:20:30;;;;;;;40.97;19.63;;;;;;;2.38;49.68;102334.63;5021228;28;20071;-81
2022/03/18 04:22:55;;;;;;;38.50;19.70;;;;;;;2.32;49.56;102339.72;5018504;28;20417;-82
2022/03/18 04:25:21;;;;;;;38.33;19.17;;;;;;;2.27;49.24;102340.03;5019226;28;20032;-80
2022/03/18 04:27:46;;;;;;;39.47;19.42;;;;;;;2.24;49.59;102340.78;5035601;28;20037;-82
2022/03/18 04:30:32;;;;;;;41.40;20.23;;;;;;;2.24;50.01;102352.03;5034815;28;20139;-82
2022/03/18 04:32:58;;;;;;;33.83;18.38;;;;;;;2.26;49.58;102352.47;5035253;28;20055;-81
2022/03/18 04:35:24;;;;;;;31.42;17.10;;;;;;;2.26;49.35;102358.09;5034577;28;20518;-81
2022/03/18 04:37:50;;;;;;;39.67;18.08;;;;;;;2.17;49.68;102355.50;5034354;28;20033;-80
2022/03/18 04:40:16;;;;;;;36.97;17.75;;;;;;;2.20;49.64;102365.22;5034675;28;20478;-81
2022/03/18 04:42:44;;;;;;;37.67;16.77;;;;;;;2.13;49.51;102371.50;5018343;28;20061;-81
2022/03/18 04:45:12;;;;;;;37.60;17.15;;;;;;;2.05;49.77;102361.28;5034320;28;20041;-80
2022/03/18 04:47:38;;;;;;;33.17;18.45;;;;;;;2.05;49.86;102368.91;5018963;28;20545;-80
2022/03/18 04:50:05;;;;;;;32.80;16.42;;;;;;;2.00;49.87;102378.44;5034895;28;20041;-80
2022/03/18 04:52:31;;;;;;;34.25;17.92;;;;;;;1.95;49.91;102375.13;5017674;28;20037;-80
2022/03/18 04:54:58;;;;;;;34.58;17.13;;;;;;;1.90;50.33;102366.97;5017510;28;20100;-80
2022/03/18 04:57:23;;;;;;;34.38;17.48;;;;;;;1.89;50.62;102376.59;5035072;28;20056;-81
2022/03/18 04:59:52;;;;;;;47.60;23.42;;;;;;;1.89;51.01;102379.41;5017415;28;20056;-81
2022/03/18 05:02:20;;;;;;;50.05;24.67;;;;;;;1.89;50.73;102399.06;5001248;28;20397;-80
2022/03/18 05:04:48;;;;;;;45.05;22.42;;;;;;;1.72;50.93;102369.41;5017601;28;20116;-80
2022/03/18 05:07:16;;;;;;;36.03;18.65;;;;;;;1.87;51.49;102402.25;5017450;28;20433;-80
2022/03/18 05:09:53;;;;;;;32.10;17.88;;;;;;;1.82;52.20;102398.94;5000743;28;20107;-79
2022/03/18 05:12:20;;;;;;;34.33;17.25;;;;;;;1.82;52.26;102387.69;4999843;28;20207;-81
2022/03/18 05:14:46;;;;;;;38.10;19.52;;;;;;;1.82;52.30;102391.31;5000728;28;20037;-79
2022/03/18 05:17:26;;;;;;;34.72;17.13;;;;;;;1.89;52.15;102393.44;5033575;28;20029;-80
2022/03/18 05:19:52;;;;;;;31.52;16.08;;;;;;;1.92;52.28;102389.91;5033588;28;20065;-80
2022/03/18 05:22:19;;;;;;;37.50;19.00;;;;;;;2.03;52.07;102402.16;5035139;28;20025;-80
2022/03/18 05:24:45;;;;;;;33.65;18.95;;;;;;;2.01;52.43;102402.56;5034152;28;20025;-81
2022/03/18 05:27:13;;;;;;;35.30;18.92;;;;;;;1.96;52.07;102410.47;5017714;28;20022;-79
2022/03/18 05:29:39;;;;;;;39.17;20.17;;;;;;;1.99;52.29;102409.72;5034228;28;20128;-82
2022/03/18 05:32:07;;;;;;;45.00;22.67;;;;;;;2.04;52.39;102417.84;5033577;28;20048;-81
2022/03/18 05:34:32;;;;;;;47.13;22.63;;;;;;;2.04;52.14;102415.06;5000734;28;20439;-81
2022/03/18 05:36:58;;;;;;;38.63;20.70;;;;;;;2.06;52.35;102421.94;5001057;28;20057;-80
2022/03/18 05:39:25;;;;;;;42.17;20.75;;;;;;;1.99;52.60;102420.97;5005238;28;20040;-80
2022/03/18 05:41:51;;;;;;;43.53;20.45;;;;;;;2.06;52.29;102427.56;5018722;28;20033;-81
2022/03/18 05:44:17;;;;;;;35.22;18.52;;;;;;;2.08;52.50;102430.00;5034433;28;20041;-80
2022/03/18 05:46:44;;;;;;;36.33;19.00;;;;;;;2.10;52.20;102430.44;5002284;28;20037;-80
2022/03/18 05:49:10;;;;;;;34.75;18.88;;;;;;;2.12;52.11;102425.28;5019151;28;20123;-81
2022/03/18 05:51:38;;;;;;;37.97;20.20;;;;;;;2.21;52.46;102439.94;5035898;28;20057;-74
2022/03/18 05:54:04;;;;;;;38.28;19.13;;;;;;;2.23;52.07;102434.72;5034411;28;20381;-78
2022/03/18 05:59:20;;;;;;;46.60;22.17;;;;;;;2.35;52.02;102445.03;5033165;28;20456;-78
2022/03/18 06:01:53;;;;;;;45.90;21.60;;;;;;;2.47;52.39;102450.47;5036337;28;20474;-75
2022/03/18 06:04:20;;;;;;;39.55;19.10;;;;;;;2.64;51.47;102449.22;5033660;28;20026;-75
2022/03/18 06:06:47;;;;;;;42.55;21.77;;;;;;;2.80;51.17;102459.19;5017423;28;20466;-75
2022/03/18 06:12:09;;;;;;;37.08;19.10;;;;;;;3.25;50.21;102461.22;5033411;28;20111;-75
2022/03/18 06:14:35;;;;;;;35.05;19.15;;;;;;;3.45;49.89;102459.16;5032045;28;20017;-74
2022/03/18 06:17:04;;;;;;;36.05;17.85;;;;;;;3.65;49.20;102468.31;4999275;28;20060;-75
2022/03/18 06:19:31;;;;;;;36.88;19.20;;;;;;;3.88;48.68;102466.25;5015836;28;20032;-74
2022/03/18 06:21:58;;;;;;;34.63;18.92;;;;;;;4.15;47.96;102472.66;5033753;28;20500;-76
2022/03/18 06:24:24;;;;;;;36.90;19.42;;;;;;;4.33;47.68;102474.56;5032325;28;20021;-76
2022/03/18 06:26:51;;;;;;;42.40;19.27;;;;;;;4.52;47.00;102470.75;4999365;28;20064;-78
2022/03/18 06:29:16;;;;;;;37.25;19.63;;;;;;;4.64;46.01;102470.50;5015491;28;20029;-76
2022/03/18 06:31:43;;;;;;;40.72;18.63;;;;;;;4.79;45.92;102477.09;5015560;28;20052;-77
2022/03/18 06:34:17;;;;;;;46.95;19.88;;;;;;;5.01;45.17;102481.81;5031789;28;20017;-77
2022/03/18 06:36:43;;;;;;;38.00;18.33;;;;;;;5.26;45.26;102475.59;5032657;28;20104;-78
2022/03/18 06:39:10;;;;;;;41.13;17.63;;;;;;;5.57;44.00;102489.19;5014747;28;20112;-76
2022/03/18 06:41:35;;;;;;;39.38;18.63;;;;;;;5.92;43.22;102492.31;5031829;28;20037;-78
2022/03/18 06:44:15;;;;;;;35.20;18.98;;;;;;;6.29;42.62;102480.84;5031589;28;20025;-77
2022/03/18 06:46:42;;;;;;;41.10;18.52;;;;;;;6.73;41.76;102474.16;5032423;28;20156;-77
2022/03/18 06:49:08;;;;;;;33.83;17.95;;;;;;;7.29;40.25;102487.66;5032845;28;20037;-75
2022/03/18 06:51:42;;;;;;;34.15;17.92;;;;;;;7.79;39.24;102494.94;5034105;28;20021;-72
2022/03/18 06:54:08;;;;;;;38.70;19.48;;;;;;;8.13;38.56;102501.00;5032973;28;20459;-71
2022/03/18 06:56:49;;;;;;;37.55;18.60;;;;;;;8.60;37.34;102488.28;5014949;28;20054;-72
2022/03/18 06:59:15;;;;;;;39.90;19.02;;;;;;;9.13;36.27;102492.09;5032749;28;20171;-72
2022/03/18 07:01:42;;;;;;;53.75;19.75;;;;;;;9.90;34.32;102487.84;5031114;28;20105;-71
2022/03/18 07:04:07;;;;;;;36.38;18.98;;;;;;;10.94;33.00;102491.97;5032524;28;20029;-72
2022/03/18 07:06:35;;;;;;;32.63;17.80;;;;;;;11.77;32.06;102493.16;5031005;28;20039;-72
2022/03/18 07:09:00;;;;;;;37.70;18.98;;;;;;;12.81;29.93;102496.44;5015055;28;20154;-76
2022/03/18 07:11:26;;;;;;;35.33;19.23;;;;;;;13.64;29.40;102499.06;5031319;28;20109;-74
2022/03/18 07:13:52;;;;;;;36.03;17.90;;;;;;;14.23;27.50;102507.34;5032699;28;20026;-75
2022/03/18 07:19:03;;;;;;;38.92;19.33;;;;;;;14.61;26.54;102516.16;5030002;28;20076;-76
2022/03/18 07:21:32;;;;;;;40.47;19.17;;;;;;;14.43;26.73;102505.19;5024481;28;20057;-71
2022/03/18 07:24:03;;;;;;;43.80;20.70;;;;;;;14.47;25.60;102520.22;5010282;28;20533;-71
2022/03/18 07:26:33;;;;;;;45.42;20.13;;;;;;;13.93;26.04;102528.59;5014324;28;20467;-71
2022/03/18 07:29:04;;;;;;;41.13;19.60;;;;;;;13.60;27.20;102527.81;5024235;28;20032;-73
2022/03/18 07:31:29;;;;;;;35.33;19.45;;;;;;;13.52;27.22;102526.34;5028946;28;20025;-74
2022/03/18 07:33:57;;;;;;;35.83;17.85;;;;;;;13.51;27.44;102527.63;5015042;28;20084;-76
2022/03/18 07:36:22;;;;;;;34.28;19.27;;;;;;;13.61;27.48;102528.59;5033736;28;20087;-74
2022/03/18 07:38:48;;;;;;;43.05;20.20;;;;;;;13.91;26.89;102530.31;5026337;28;20033;-78
2022/03/18 07:41:17;;;;;;;53.97;21.52;;;;;;;14.41;26.17;102526.97;5034819;28;20041;-78
2022/03/18 07:43:44;;;;;;;39.13;19.77;;;;;;;14.77;26.17;102527.56;5018379;28;20030;-77
2022/03/18 07:46:10;;;;;;;37.75;19.63;;;;;;;15.30;25.18;102531.69;5016156;28;20411;-74
2022/03/18 07:48:40;;;;;;;35.30;19.33;;;;;;;15.72;24.89;102520.97;5016687;28;20025;-73
2022/03/18 07:51:06;;;;;;;35.65;19.13;;;;;;;16.34;24.38;102536.47;5022957;28;20116;-76
2022/03/18 07:53:32;;;;;;;30.92;20.20;;;;;;;16.59;23.52;102531.91;5036310;28;20033;-75
2022/03/18 07:55:58;;;;;;;52.63;21.75;;;;;;;16.57;23.17;102525.81;5050279;28;20443;-77
2022/03/18 07:58:25;;;;;;;57.63;20.48;;;;;;;16.62;23.69;102546.19;5057956;28;20043;-75
2022/03/18 08:00:52;;;;;;;31.77;20.15;;;;;;;16.43;23.31;102545.19;5056739;28;20480;-75
2022/03/18 08:03:17;;;;;;;32.03;20.10;;;;;;;16.22;23.53;102548.81;5057796;28;20033;-77
2022/03/18 08:05:43;;;;;;;47.70;20.48;;;;;;;16.09;23.10;102550.09;5039620;28;20033;-75
2022/03/18 08:08:09;;;;;;;28.70;18.92;;;;;;;16.05;23.40;102550.22;5056505;28;20032;-75
2022/03/18 08:10:36;;;;;;;42.33;19.88;;;;;;;16.09;24.12;102562.41;5021953;28;20455;-74
2022/03/18 08:13:10;;;;;;;45.53;19.42;;;;;;;16.24;23.06;102556.97;5038145;28;20115;-75
2022/03/18 08:15:36;;;;;;;37.45;19.90;;;;;;;16.42;22.95;102555.09;5056200;28;20481;-76
2022/03/18 08:18:02;;;;;;;33.97;19.58;;;;;;;16.70;22.91;102561.13;5056013;28;20024;-74
2022/03/18 08:20:44;;;;;;;41.00;18.75;;;;;;;16.97;22.15;102561.31;5056041;28;20032;-76
2022/03/18 08:23:14;;;;;;;32.03;18.98;;;;;;;16.94;21.99;102565.13;5056744;28;20031;-76
2022/03/18 08:25:41;;;;;;;37.03;19.52;;;;;;;17.49;21.62;102562.59;5021656;28;20474;-78
2022/03/18 08:28:08;;;;;;;46.22;20.58;;;;;;;17.52;21.34;102567.41;5037277;28;20183;-78
2022/03/18 08:30:34;;;;;;;39.40;19.63;;;;;;;17.26;22.32;102572.56;5005463;28;20029;-77
2022/03/18 08:33:02;;;;;;;45.60;20.02;;;;;;;17.18;22.58;102577.78;5056504;28;20029;-79
2022/03/18 08:35:30;;;;;;;30.42;18.40;;;;;;;17.51;22.58;102580.25;5040963;28;20036;-77
2022/03/18 08:37:58;;;;;;;37.50;19.70;;;;;;;17.65;21.99;102582.59;5055784;28;20031;-77
2022/03/18 08:40:32;;;;;;;35.38;20.10;;;;;;;17.71;21.34;102588.53;5021013;28;20504;-77
2022/03/18 08:43:12;;;;;;;34.05;19.15;;;;;;;17.90;21.65;102591.03;5021106;28;20025;-74
2022/03/18 08:45:38;;;;;;;35.05;19.55;;;;;;;18.04;21.56;102596.19;5055528;28;20079;-75
2022/03/18 08:48:05;;;;;;;39.50;20.83;;;;;;;18.14;21.35;102591.25;5036925;28;20033;-75
2022/03/18 08:50:31;;;;;;;42.45;19.60;;;;;;;18.11;21.74;102603.72;5037808;28;20031;-76
2022/03/18 08:52:56;;;;;;;36.88;19.80;;;;;;;18.07;20.90;102603.09;5021383;28;20053;-76
2022/03/18 08:55:23;;;;;;;34.50;18.17;;;;;;;18.02;21.77;102603.72;5039593;28;20418;-81
2022/03/18 08:57:48;;;;;;;32.90;19.60;;;;;;;18.01;21.74;102607.88;5039356;28;20025;-78
2022/03/18 09:00:19;;;;;;;49.83;21.58;;;;;;;17.86;21.69;102609.75;5056420;28;20389;-80
2022/03/18 09:02:46;;;;;;;36.55;19.85;;;;;;;17.72;21.28;102607.41;5005235;28;20024;-79
2022/03/18 09:05:13;;;;;;;30.00;18.80;;;;;;;17.63;21.66;102613.94;5055979;28;20041;-78
2022/03/18 09:07:39;;;;;;;41.05;21.17;;;;;;;17.56;21.57;102611.34;5055730;28;20036;-78
2022/03/18 09:10:07;;;;;;;30.08;19.80;;;;;;;17.51;21.06;102626.34;5020522;28;20033;-79
2022/03/18 09:12:34;;;;;;;37.78;21.35;;;;;;;17.10;21.78;102613.91;5004453;28;20025;-78
2022/03/18 09:14:59;;;;;;;42.65;21.00;;;;;;;16.89;22.42;102631.16;5037790;28;20055;-77
2022/03/18 09:17:33;;;;;;;35.35;19.73;;;;;;;16.69;22.06;102628.56;5021264;28;20037;-78
2022/03/18 09:20:00;;;;;;;33.60;20.95;;;;;;;16.52;22.00;102627.91;5055411;28;20082;-78
2022/03/18 09:22:26;;;;;;;36.13;20.90;;;;;;;16.32;22.11;102630.25;5055340;28;20028;-81
2022/03/18 09:24:55;;;;;;;34.70;20.08;;;;;;;16.23;22.42;102635.91;5054920;28;20111;-79
2022/03/18 09:27:22;;;;;;;42.75;20.80;;;;;;;16.19;22.27;102640.94;5036538;28;20128;-78
2022/03/18 09:29:59;;;;;;;37.13;21.17;;;;;;;16.06;22.38;102643.84;5054677;28;20041;-79
2022/03/18 09:32:27;;;;;;;39.20;19.73;;;;;;;15.99;22.68;102639.13;5055218;28;20378;-79
2022/03/18 09:35:08;;;;;;;63.97;23.42;;;;;;;15.89;23.13;102648.06;5004859;28;20378;-78
2022/03/18 09:37:34;;;;;;;35.10;20.73;;;;;;;15.83;23.60;102645.00;5054793;28;20025;-81
2022/03/18 09:40:04;;;;;;;36.13;20.75;;;;;;;15.75;23.23;102639.91;5055180;28;20100;-77
2022/03/18 09:42:32;;;;;;;36.53;20.92;;;;;;;15.60;23.71;102641.59;5021268;28;20469;-78
2022/03/18 09:45:00;;;;;;;29.45;18.77;;;;;;;15.47;23.66;102633.75;5038369;28;20044;-74
2022/03/18 09:47:27;;;;;;;30.13;19.17;;;;;;;15.34;24.02;102640.75;5055425;28;20035;-78
2022/03/18 09:49:54;;;;;;;36.03;18.42;;;;;;;15.11;24.26;102645.47;5054506;28;20116;-78
2022/03/18 09:52:20;;;;;;;36.45;19.15;;;;;;;15.08;24.26;102645.59;5054751;28;20517;-77
2022/03/18 09:54:47;;;;;;;42.75;19.65;;;;;;;15.10;24.23;102643.84;5055698;28;20049;-81
2022/03/18 09:57:12;;;;;;;37.97;19.25;;;;;;;14.96;24.24;102650.00;5036900;28;20090;-78
2022/03/18 09:59:40;;;;;;;42.70;18.98;;;;;;;14.92;24.54;102654.22;5037062;28;20024;-78
2022/03/18 10:02:26;;;;;;;43.40;20.05;;;;;;;14.86;24.39;102656.84;5039045;28;20029;-80
2022/03/18 10:05:02;;;;;;;37.50;18.73;;;;;;;14.79;24.72;102656.25;5055334;28;20458;-74
2022/03/18 10:07:29;;;;;;;33.08;18.08;;;;;;;14.75;24.16;102662.06;5054191;28;20076;-73
2022/03/18 10:10:14;;;;;;;31.45;19.77;;;;;;;14.67;24.73;102667.19;5036171;28;20040;-73
2022/03/18 10:12:44;;;;;;;28.55;18.35;;;;;;;14.68;25.06;102665.13;5053672;28;20046;-73
2022/03/18 10:15:22;;;;;;;36.03;20.65;;;;;;;14.65;25.24;102669.69;5036287;28;20060;-74
2022/03/18 10:17:58;;;;;;;44.47;22.33;;;;;;;14.80;24.91;102675.06;5036788;28;20025;-76
2022/03/18 10:20:39;;;;;;;54.00;27.55;;;;;;;14.78;24.86;102683.31;4998811;28;20086;-76
2022/03/18 10:23:20;;;;;;;46.65;23.02;;;;;;;14.68;24.92;102676.59;5022467;28;20047;-78
2022/03/18 10:25:56;;;;;;;37.45;20.90;;;;;;;14.69;25.52;102679.03;5061922;28;20036;-77
2022/03/18 10:28:43;;;;;;;47.28;21.67;;;;;;;14.70;25.16;102677.75;5038306;28;20037;-79
2022/03/18 10:31:22;;;;;;;38.22;20.15;;;;;;;14.62;25.28;102681.25;5039664;28;20036;-77
2022/03/18 10:37:11;;;;;;;33.47;19.33;;;;;;;14.46;25.35;102676.34;5041728;28;20402;-80
2022/03/18 10:40:01;;;;;;;38.78;21.05;;;;;;;14.46;25.39;102679.19;5025091;28;20086;-84
2022/03/18 10:42:27;;;;;;;36.65;20.83;;;;;;;14.41;25.51;102674.00;5056855;28;20028;-80
2022/03/18 10:44:58;;;;;;;30.10;18.73;;;;;;;14.43;25.70;102676.44;5037545;28;20037;-78
2022/03/18 10:47:42;;;;;;;38.65;19.58;;;;;;;14.70;25.93;102688.44;5055849;28;20029;-80
2022/03/18 10:50:11;;;;;;;36.85;19.17;;;;;;;14.87;25.42;102684.28;5057785;28;20036;-79
2022/03/18 10:52:39;;;;;;;35.22;19.63;;;;;;;14.96;24.22;102683.63;5055509;28;20036;-77
2022/03/18 10:55:34;;;;;;;32.28;18.58;;;;;;;14.85;25.26;102671.66;5052912;28;20144;-77
2022/03/18 10:58:05;;;;;;;27.05;17.20;;;;;;;14.83;25.30;102677.03;5052309;28;20110;-75
2022/03/18 11:00:33;;;;;;;39.80;20.70;;;;;;;14.76;24.73;102677.22;5053879;28;20024;-79
2022/03/18 11:03:03;;;;;;;34.60;19.55;;;;;;;14.45;25.01;102677.63;5039921;28;20025;-81
2022/03/18 11:05:38;;;;;;;39.60;19.73;;;;;;;14.27;24.71;102666.53;5052242;28;20477;-78
2022/03/18 11:08:07;;;;;;;35.03;17.77;;;;;;;14.13;25.09;102680.41;5052614;28;20059;-80
2022/03/18 11:13:27;;;;;;;30.10;17.77;;;;;;;13.92;24.80;102678.03;5040793;28;20044;-74
2022/03/18 11:15:54;;;;;;;29.63;17.17;;;;;;;13.78;25.14;102674.25;5034790;28;20048;-74
2022/03/18 11:18:20;;;;;;;31.17;16.70;;;;;;;13.63;24.41;102675.00;5037755;28;20107;-73
2022/03/18 11:20:50;;;;;;;26.08;16.13;;;;;;;13.47;25.39;102680.69;5055713;28;20092;-74
2022/03/18 11:23:28;;;;;;;30.55;16.67;;;;;;;13.58;24.74;102679.19;5055767;28;20021;-77
2022/03/18 11:25:57;;;;;;;25.95;14.25;;;;;;;13.60;24.57;102676.72;5056510;28;20020;-75
2022/03/18 11:28:22;;;;;;;27.90;16.35;;;;;;;13.57;25.15;102686.16;5038793;28;20104;-73
2022/03/18 11:31:05;;;;;;;30.05;16.92;;;;;;;13.62;24.57;102681.97;5033795;28;20083;-73
2022/03/18 11:33:34;;;;;;;44.80;18.42;;;;;;;13.59;24.85;102680.81;5047349;28;20044;-73
2022/03/18 11:36:13;;;;;;;40.80;16.45;;;;;;;13.69;24.24;102684.69;5035630;28;20124;-73
2022/03/18 11:38:51;;;;;;;22.92;15.63;;;;;;;13.70;24.75;102680.59;5020361;28;20049;-74
2022/03/18 11:41:21;;;;;;;27.95;16.38;;;;;;;13.66;25.30;102674.13;5053011;28;20037;-74
2022/03/18 11:43:51;;;;;;;28.73;15.45;;;;;;;13.77;24.45;102684.09;5011846;28;20049;-74
2022/03/18 11:46:23;;;;;;;25.33;14.40;;;;;;;13.90;23.01;102686.28;5014823;28;20041;-73